createdAt,value
2023-02-06T00:04:18.072Z,1034.15
2023-02-06T00:16:18.249Z,1034.35
2023-02-06T00:28:18.181Z,1034.35
2023-02-06T00:40:18.092Z,1034.4
2023-02-06T00:52:18.104Z,1034.3899999999999
2023-02-06T01:04:18.108Z,1034.5
2023-02-06T01:16:18.159Z,1034.51
2023-02-06T01:28:18.145Z,1034.3600000000001
2023-02-06T01:40:18.111Z,1034.4299999999998
2023-02-06T01:52:18.121Z,1034.35
2023-02-06T02:04:18.111Z,1034.35
2023-02-06T02:16:18.243Z,1034.21
2023-02-06T02:28:18.202Z,1034.27
2023-02-06T02:40:18.165Z,1034.3400000000001
2023-02-06T02:52:18.187Z,1034.4299999999998
2023-02-06T03:04:18.204Z,1034.1599999999999
2023-02-06T03:16:18.200Z,1034.33
2023-02-06T03:28:18.250Z,1034.5900000000001
2023-02-06T03:40:18.206Z,1034.56
2023-02-06T03:52:18.188Z,1034.72
2023-02-06T04:04:18.220Z,1034.92
2023-02-06T04:16:18.238Z,1034.8899999999999
2023-02-06T04:28:18.381Z,1034.8899999999999
2023-02-06T04:40:18.235Z,1034.88
2023-02-06T04:52:18.251Z,1034.92
2023-02-06T05:04:18.295Z,1034.8899999999999
2023-02-06T05:16:18.330Z,1034.95
2023-02-06T05:28:18.296Z,1035.01
2023-02-06T05:40:18.328Z,1035.03
2023-02-06T05:52:18.324Z,1035.24
2023-02-06T06:04:18.438Z,1035.29
2023-02-06T06:16:18.387Z,1035.3400000000001
2023-02-06T06:28:18.441Z,1035.33
2023-02-06T06:41:18.357Z,1035.44
2023-02-06T06:54:18.365Z,1035.65
2023-02-06T07:07:18.394Z,1035.65
2023-02-06T07:20:18.451Z,1035.5
2023-02-06T07:34:18.456Z,1035.6599999999999
2023-02-06T07:47:18.484Z,1035.7
2023-02-06T08:00:18.467Z,1035.6799999999998
2023-02-06T08:13:18.523Z,1035.6399999999999
2023-02-06T08:26:18.492Z,1035.51
2023-02-06T08:39:18.564Z,1035.35
2023-02-06T08:52:18.555Z,1035.4
2023-02-06T09:05:18.563Z,1035.3200000000002
2023-02-06T09:27:00.400Z,1035.26
2023-02-06T09:39:55.998Z,1035.01
2023-02-06T09:52:55.962Z,1035.02
2023-02-06T10:05:56.199Z,1035.2
2023-02-06T10:18:56.045Z,1035.02
2023-02-06T10:37:00.697Z,1034.79
2023-02-06T10:50:00.882Z,1034.81
2023-02-06T11:03:07.343Z,1034.6799999999998
2023-02-06T11:16:01.296Z,1034.5900000000001
2023-02-06T11:29:01.440Z,1034.42
2023-02-06T11:42:01.403Z,1034.19
2023-02-06T11:55:01.432Z,1034
2023-02-06T12:08:01.667Z,1033.95
2023-02-06T12:20:45.726Z,1033.72
2023-02-06T12:33:45.815Z,1033.52
2023-02-06T12:48:19.820Z,1033.3899999999999
2023-02-06T13:01:28.777Z,1033.2
2023-02-06T13:14:19.809Z,1033.02
2023-02-06T13:27:19.818Z,1033.19
2023-02-06T13:40:19.852Z,1033.17
2023-02-06T13:53:19.913Z,1033.0700000000002
2023-02-06T14:06:19.914Z,1032.9
2023-02-06T14:19:19.928Z,1032.83
2023-02-06T14:32:19.988Z,1032.96
2023-02-06T14:45:20.005Z,1033.06
2023-02-06T14:58:20.019Z,1033.02
2023-02-06T15:11:20.098Z,1032.9
2023-02-06T15:25:20.005Z,1032.8400000000001
2023-02-06T15:38:20.059Z,1032.76
2023-02-06T15:51:20.070Z,1032.5700000000002
2023-02-06T16:04:20.214Z,1032.5
2023-02-06T16:17:20.219Z,1032.49
2023-02-06T16:30:20.216Z,1032.6
2023-02-06T16:43:20.263Z,1032.7
2023-02-06T16:56:20.342Z,1032.75
2023-02-06T17:08:20.443Z,1032.92
2023-02-06T17:20:20.393Z,1033.0900000000001
2023-02-06T17:32:20.533Z,1033.1799999999998
2023-02-06T17:44:20.505Z,1033.27
2023-02-06T17:56:20.482Z,1033.5
2023-02-06T18:08:20.668Z,1033.56
2023-02-06T18:20:20.632Z,1033.6399999999999
2023-02-06T18:32:20.630Z,1033.6599999999999
2023-02-06T18:44:20.658Z,1033.5900000000001
2023-02-06T18:56:20.703Z,1033.6799999999998
2023-02-06T19:08:20.702Z,1033.6799999999998
2023-02-06T19:20:20.706Z,1033.73
2023-02-06T19:32:20.746Z,1033.92
2023-02-06T19:44:20.723Z,1034.13
2023-02-06T19:56:20.725Z,1034.23
2023-02-06T20:08:20.811Z,1034.3899999999999
2023-02-06T20:20:20.822Z,1034.54
2023-02-06T20:32:20.877Z,1034.6799999999998
2023-02-06T20:44:20.880Z,1034.75
2023-02-06T20:56:20.871Z,1034.77
2023-02-06T21:08:20.926Z,1034.96
2023-02-06T21:20:20.902Z,1035.0900000000001
2023-02-06T21:32:20.939Z,1035.13
2023-02-06T21:44:20.926Z,1035.33
2023-02-06T21:56:20.933Z,1035.65
2023-02-06T22:08:20.940Z,1035.6100000000001
2023-02-06T22:20:20.935Z,1035.85
2023-02-06T22:32:20.995Z,1035.9099999999999
2023-02-06T22:44:20.944Z,1036.01
2023-02-06T22:56:20.968Z,1036
2023-02-06T23:08:21.016Z,1035.8600000000001
2023-02-06T23:20:21.022Z,1035.73
2023-02-06T23:32:21.041Z,1035.8400000000001
2023-02-06T23:44:21.006Z,1035.75
2023-02-06T23:56:20.993Z,1035.9099999999999
